Terminal Aerodrome Forecast
Issued by NWS

Home | Current Version | Previous Version | Text Only | Print | Product List | Glossary On
Versions: 1 2 3 4 5 6 7 8 9 10 11 12 13 14 15 16 17 18
000
FTUS43 KLSX 281700
TAFCPS
TAF
KCPS 281720Z 2818/2918 18012G20KT P6SM SCT250
     FM290300 18010KT P6SM BKN250 WS020/22040KT
     FM290900 18010KT P6SM OVC015 WS020/22040KT
     FM291500 20012KT P6SM OVC015=

USA.gov is the U.S. government's official web portal to all federal, state and local government web resources and services.